Archival Weather

Fukuoka

Fukuoka, Japan (RJFF)

Report from: Tuesday, August 16, 2022 11:01 AM JST
Current time: Sunday, November 27, 2022 5:36 PM JST

Current weather
Weather history
Weather forecast

Present weatherVCSH
Temperature30.0°C (86.0°F)
Heat index38.9°C (101.9°F)
Dew point27.0°C (80.6°F)
Winds 15 kts (7.7 m/s, 17.3 mph) South (190°)
Wind gusts 25 kts (12.9 m/s, 28.8 mph)
Visibility6.2 mi. (10 km)
Clouds Few clouds 1,000 ft. (305 m)
Few clouds with cumulonimbus 3,000 ft. (914 m)
Scattered clouds 3,500 ft. (1,067 m)
Ceiling: Broken clouds 4,500 ft. (1,372 m)
Altimeter29.74 in.Hg (1007 mB)
Precip. events C 11:01 AM
Relative humidity84 %
Density altitude2,403 ft. (732 m)
Remarks Special weather observation
Cumulonimbus clouds observed south southwest moving northeast
Flight conditions Visual Meteorological Conditions
Raw dataSPJP31 KWBC 160216 SPECI RJFF 160201Z 19015G25KT 9999 VCSH FEW010 FEW030CB SCT035 BKN045 30/27 Q1007 RMK 1CU010 1CB030 4CU035 6CU045 A2974 CB 10KM S-SW MOV NE
An error has occurred. This application may no longer respond until reloaded. Reload 🗙